sensor_id;sensor_type;location;lat;lon;timestamp;pressure;altitude;pressure_sealevel;temperature;humidity
71126;BME280;58785;55.566;38.058;2023-05-10T00:01:32;101340.03;;;8.50;57.22
71126;BME280;58785;55.566;38.058;2023-05-10T00:03:57;101348.47;;;8.57;57.22
71126;BME280;58785;55.566;38.058;2023-05-10T00:06:23;101338.91;;;8.54;56.52
71126;BME280;58785;55.566;38.058;2023-05-10T00:08:49;101347.59;;;8.56;56.44
71126;BME280;58785;55.566;38.058;2023-05-10T00:11:14;101328.03;;;8.57;56.39
71126;BME280;58785;55.566;38.058;2023-05-10T00:13:40;101336.47;;;8.64;55.65
71126;BME280;58785;55.566;38.058;2023-05-10T00:16:06;101341.66;;;8.66;56.04
71126;BME280;58785;55.566;38.058;2023-05-10T00:18:31;101332.84;;;8.65;55.56
71126;BME280;58785;55.566;38.058;2023-05-10T00:20:57;101337.94;;;8.68;55.81
71126;BME280;58785;55.566;38.058;2023-05-10T00:23:23;101336.88;;;8.71;55.92
71126;BME280;58785;55.566;38.058;2023-05-10T00:25:48;101337.72;;;8.71;55.43
71126;BME280;58785;55.566;38.058;2023-05-10T00:28:14;101349.53;;;8.67;55.77
71126;BME280;58785;55.566;38.058;2023-05-10T00:30:40;101346.75;;;8.56;56.02
71126;BME280;58785;55.566;38.058;2023-05-10T00:33:06;101342.16;;;8.45;56.49
71126;BME280;58785;55.566;38.058;2023-05-10T00:35:32;101349.28;;;8.45;56.39
71126;BME280;58785;55.566;38.058;2023-05-10T00:37:57;101338.44;;;8.35;56.74
71126;BME280;58785;55.566;38.058;2023-05-10T00:40:23;101343.03;;;8.31;56.78
71126;BME280;58785;55.566;38.058;2023-05-10T00:42:49;101336.63;;;8.35;56.95
71126;BME280;58785;55.566;38.058;2023-05-10T00:45:14;101340.66;;;8.41;57.50
71126;BME280;58785;55.566;38.058;2023-05-10T00:47:40;101337.25;;;8.39;57.31
71126;BME280;58785;55.566;38.058;2023-05-10T00:50:06;101336.31;;;8.40;57.81
71126;BME280;58785;55.566;38.058;2023-05-10T00:52:32;101330.47;;;8.35;57.48
71126;BME280;58785;55.566;38.058;2023-05-10T00:54:58;101338.50;;;8.33;57.74
71126;BME280;58785;55.566;38.058;2023-05-10T00:57:24;101342.19;;;8.31;58.16
71126;BME280;58785;55.566;38.058;2023-05-10T00:59:50;101340.25;;;8.20;58.15
71126;BME280;58785;55.566;38.058;2023-05-10T01:02:16;101331.75;;;8.15;58.50
71126;BME280;58785;55.566;38.058;2023-05-10T01:04:42;101339.41;;;8.20;58.41
71126;BME280;58785;55.566;38.058;2023-05-10T01:07:08;101333.97;;;8.21;58.67
71126;BME280;58785;55.566;38.058;2023-05-10T01:09:34;101332.94;;;8.24;58.72
71126;BME280;58785;55.566;38.058;2023-05-10T01:12:01;101338.91;;;8.27;58.43
71126;BME280;58785;55.566;38.058;2023-05-10T01:14:28;101337.94;;;8.28;58.52
71126;BME280;58785;55.566;38.058;2023-05-10T01:16:54;101340.38;;;8.31;59.22
71126;BME280;58785;55.566;38.058;2023-05-10T01:19:26;101339.00;;;8.26;58.87
71126;BME280;58785;55.566;38.058;2023-05-10T01:27:14;101344.00;;;8.30;59.30
71126;BME280;58785;55.566;38.058;2023-05-10T01:30:05;101337.66;;;8.33;59.05
71126;BME280;58785;55.566;38.058;2023-05-10T01:32:45;101333.31;;;8.32;59.85
71126;BME280;58785;55.566;38.058;2023-05-10T01:35:55;101331.88;;;8.26;59.87
71126;BME280;58785;55.566;38.058;2023-05-10T01:38:49;101333.34;;;8.18;60.17
71126;BME280;58785;55.566;38.058;2023-05-10T01:41:52;101344.59;;;8.08;60.26
71126;BME280;58785;55.566;38.058;2023-05-10T01:44:24;101331.16;;;7.97;60.47
71126;BME280;58785;55.566;38.058;2023-05-10T01:47:12;101327.13;;;7.92;60.12
71126;BME280;58785;55.566;38.058;2023-05-10T01:50:02;101330.19;;;7.98;60.38
71126;BME280;58785;55.566;38.058;2023-05-10T01:52:42;101329.34;;;7.98;60.65
71126;BME280;58785;55.566;38.058;2023-05-10T01:55:13;101331.31;;;8.08;59.93
71126;BME280;58785;55.566;38.058;2023-05-10T01:57:42;101325.13;;;8.08;60.17
71126;BME280;58785;55.566;38.058;2023-05-10T02:00:10;101316.41;;;8.06;60.76
71126;BME280;58785;55.566;38.058;2023-05-10T02:02:39;101330.69;;;8.18;60.15
71126;BME280;58785;55.566;38.058;2023-05-10T02:05:08;101340.06;;;8.23;59.93
71126;BME280;58785;55.566;38.058;2023-05-10T02:07:37;101328.66;;;8.21;60.04
71126;BME280;58785;55.566;38.058;2023-05-10T02:10:05;101337.94;;;8.28;60.14
71126;BME280;58785;55.566;38.058;2023-05-10T02:12:36;101331.50;;;8.32;59.71
71126;BME280;58785;55.566;38.058;2023-05-10T02:15:04;101330.25;;;8.38;59.63
71126;BME280;58785;55.566;38.058;2023-05-10T02:17:32;101322.16;;;8.40;59.69
71126;BME280;58785;55.566;38.058;2023-05-10T02:20:03;101333.25;;;8.46;60.18
71126;BME280;58785;55.566;38.058;2023-05-10T02:22:29;101333.03;;;8.49;60.43
71126;BME280;58785;55.566;38.058;2023-05-10T02:24:57;101322.50;;;8.48;60.21
71126;BME280;58785;55.566;38.058;2023-05-10T02:27:25;101314.31;;;8.51;60.74
71126;BME280;58785;55.566;38.058;2023-05-10T02:29:53;101327.19;;;8.57;60.50
71126;BME280;58785;55.566;38.058;2023-05-10T02:32:21;101320.69;;;8.61;60.66
71126;BME280;58785;55.566;38.058;2023-05-10T02:34:48;101328.38;;;8.66;60.41
71126;BME280;58785;55.566;38.058;2023-05-10T02:37:19;101313.38;;;8.64;59.90
71126;BME280;58785;55.566;38.058;2023-05-10T02:39:47;101308.81;;;8.67;59.45
71126;BME280;58785;55.566;38.058;2023-05-10T02:42:17;101317.44;;;8.83;59.05
71126;BME280;58785;55.566;38.058;2023-05-10T02:44:45;101306.69;;;8.84;59.33
71126;BME280;58785;55.566;38.058;2023-05-10T02:47:13;101319.97;;;8.97;58.73
71126;BME280;58785;55.566;38.058;2023-05-10T02:49:39;101317.94;;;9.01;58.39
71126;BME280;58785;55.566;38.058;2023-05-10T02:52:05;101314.97;;;9.05;58.26
71126;BME280;58785;55.566;38.058;2023-05-10T02:54:41;101312.63;;;9.13;57.93
71126;BME280;58785;55.566;38.058;2023-05-10T02:57:11;101311.31;;;9.19;58.28
71126;BME280;58785;55.566;38.058;2023-05-10T02:59:40;101310.66;;;9.28;57.54
71126;BME280;58785;55.566;38.058;2023-05-10T03:02:09;101313.88;;;9.33;57.77
71126;BME280;58785;55.566;38.058;2023-05-10T03:04:35;101313.09;;;9.31;58.04
71126;BME280;58785;55.566;38.058;2023-05-10T03:07:01;101305.44;;;9.27;58.02
71126;BME280;58785;55.566;38.058;2023-05-10T03:09:27;101314.72;;;9.34;58.18
71126;BME280;58785;55.566;38.058;2023-05-10T03:14:44;101308.06;;;9.39;57.92
71126;BME280;58785;55.566;38.058;2023-05-10T03:20:02;101307.19;;;9.51;57.79
71126;BME280;58785;55.566;38.058;2023-05-10T03:22:33;101306.88;;;9.56;57.91
71126;BME280;58785;55.566;38.058;2023-05-10T03:25:05;101310.03;;;9.61;57.17
71126;BME280;58785;55.566;38.058;2023-05-10T03:27:39;101305.13;;;9.68;57.35
71126;BME280;58785;55.566;38.058;2023-05-10T03:30:08;101307.97;;;9.77;57.24
71126;BME280;58785;55.566;38.058;2023-05-10T03:32:35;101312.50;;;9.88;57.22
71126;BME280;58785;55.566;38.058;2023-05-10T03:35:09;101303.94;;;9.96;57.28
71126;BME280;58785;55.566;38.058;2023-05-10T03:37:35;101302.72;;;10.00;57.32
71126;BME280;58785;55.566;38.058;2023-05-10T03:40:02;101306.41;;;10.10;57.16
71126;BME280;58785;55.566;38.058;2023-05-10T03:42:29;101316.38;;;10.19;56.69
71126;BME280;58785;55.566;38.058;2023-05-10T03:44:55;101305.41;;;10.24;56.77
71126;BME280;58785;55.566;38.058;2023-05-10T03:47:20;101311.75;;;10.34;56.54
71126;BME280;58785;55.566;38.058;2023-05-10T03:49:46;101313.56;;;10.33;56.96
71126;BME280;58785;55.566;38.058;2023-05-10T03:52:12;101317.09;;;10.34;57.35
71126;BME280;58785;55.566;38.058;2023-05-10T03:54:37;101319.50;;;10.37;57.15
71126;BME280;58785;55.566;38.058;2023-05-10T03:57:03;101317.69;;;10.38;56.82
71126;BME280;58785;55.566;38.058;2023-05-10T03:59:29;101324.41;;;10.43;57.48
71126;BME280;58785;55.566;38.058;2023-05-10T04:01:55;101313.97;;;10.51;57.74
71126;BME280;58785;55.566;38.058;2023-05-10T04:04:21;101313.13;;;10.62;57.36
71126;BME280;58785;55.566;38.058;2023-05-10T04:06:48;101310.72;;;10.70;57.47
71126;BME280;58785;55.566;38.058;2023-05-10T04:09:14;101298.88;;;10.74;57.92
71126;BME280;58785;55.566;38.058;2023-05-10T04:11:40;101301.91;;;10.81;57.18
71126;BME280;58785;55.566;38.058;2023-05-10T04:14:06;101310.03;;;10.90;57.33
71126;BME280;58785;55.566;38.058;2023-05-10T04:16:32;101308.00;;;10.94;57.19
71126;BME280;58785;55.566;38.058;2023-05-10T04:18:57;101305.66;;;11.01;56.97
71126;BME280;58785;55.566;38.058;2023-05-10T04:21:23;101306.03;;;11.07;57.38
71126;BME280;58785;55.566;38.058;2023-05-10T04:23:49;101300.31;;;11.12;57.88
71126;BME280;58785;55.566;38.058;2023-05-10T04:26:15;101302.91;;;11.25;57.82
71126;BME280;58785;55.566;38.058;2023-05-10T04:28:41;101301.91;;;11.37;57.24
71126;BME280;58785;55.566;38.058;2023-05-10T04:31:09;101291.47;;;11.45;56.63
71126;BME280;58785;55.566;38.058;2023-05-10T04:33:35;101292.88;;;11.60;56.48
71126;BME280;58785;55.566;38.058;2023-05-10T04:36:01;101299.66;;;11.75;56.38
71126;BME280;58785;55.566;38.058;2023-05-10T04:38:27;101305.69;;;11.89;56.00
71126;BME280;58785;55.566;38.058;2023-05-10T04:40:53;101297.31;;;11.93;55.69
71126;BME280;58785;55.566;38.058;2023-05-10T04:43:19;101293.91;;;11.91;56.25
71126;BME280;58785;55.566;38.058;2023-05-10T04:45:46;101301.06;;;11.91;55.66
71126;BME280;58785;55.566;38.058;2023-05-10T04:48:12;101293.97;;;12.01;55.06
71126;BME280;58785;55.566;38.058;2023-05-10T04:50:39;101286.19;;;12.09;54.61
71126;BME280;58785;55.566;38.058;2023-05-10T04:53:04;101294.75;;;12.24;54.05
71126;BME280;58785;55.566;38.058;2023-05-10T04:55:30;101297.69;;;12.42;53.53
71126;BME280;58785;55.566;38.058;2023-05-10T04:57:56;101288.09;;;12.60;52.93
71126;BME280;58785;55.566;38.058;2023-05-10T05:00:23;101284.47;;;12.71;52.65
71126;BME280;58785;55.566;38.058;2023-05-10T05:02:48;101284.59;;;12.90;52.21
71126;BME280;58785;55.566;38.058;2023-05-10T05:05:14;101286.66;;;13.07;52.07
71126;BME280;58785;55.566;38.058;2023-05-10T05:07:40;101277.66;;;13.18;51.75
71126;BME280;58785;55.566;38.058;2023-05-10T05:10:07;101280.75;;;13.44;51.22
71126;BME280;58785;55.566;38.058;2023-05-10T05:12:34;101276.50;;;13.51;50.22
71126;BME280;58785;55.566;38.058;2023-05-10T05:15:01;101285.44;;;13.71;49.94
71126;BME280;58785;55.566;38.058;2023-05-10T05:17:26;101276.16;;;13.85;48.62
71126;BME280;58785;55.566;38.058;2023-05-10T05:19:52;101280.25;;;13.98;48.09
71126;BME280;58785;55.566;38.058;2023-05-10T05:22:18;101281.09;;;14.08;47.86
71126;BME280;58785;55.566;38.058;2023-05-10T05:24:56;101274.75;;;14.19;47.51
71126;BME280;58785;55.566;38.058;2023-05-10T05:27:22;101270.63;;;14.34;46.95
71126;BME280;58785;55.566;38.058;2023-05-10T05:29:53;101263.69;;;14.42;46.60
71126;BME280;58785;55.566;38.058;2023-05-10T05:32:20;101266.81;;;14.56;46.23
71126;BME280;58785;55.566;38.058;2023-05-10T05:34:46;101261.66;;;14.73;46.16
71126;BME280;58785;55.566;38.058;2023-05-10T05:37:14;101260.22;;;14.88;45.40
71126;BME280;58785;55.566;38.058;2023-05-10T05:39:40;101264.50;;;15.08;45.15
71126;BME280;58785;55.566;38.058;2023-05-10T05:42:06;101266.56;;;15.24;44.54
71126;BME280;58785;55.566;38.058;2023-05-10T05:44:32;101262.97;;;15.33;44.39
71126;BME280;58785;55.566;38.058;2023-05-10T05:46:58;101267.84;;;15.47;44.30
71126;BME280;58785;55.566;38.058;2023-05-10T05:49:24;101266.06;;;15.66;43.71
71126;BME280;58785;55.566;38.058;2023-05-10T05:51:50;101262.00;;;15.79;43.73
71126;BME280;58785;55.566;38.058;2023-05-10T05:54:16;101258.47;;;15.97;43.27
71126;BME280;58785;55.566;38.058;2023-05-10T05:56:42;101259.53;;;16.04;42.71
71126;BME280;58785;55.566;38.058;2023-05-10T05:59:10;101255.59;;;16.16;42.59
71126;BME280;58785;55.566;38.058;2023-05-10T06:01:35;101254.13;;;16.22;42.54
71126;BME280;58785;55.566;38.058;2023-05-10T06:04:04;101252.50;;;16.29;42.15
71126;BME280;58785;55.566;38.058;2023-05-10T06:06:30;101248.97;;;16.28;41.90
71126;BME280;58785;55.566;38.058;2023-05-10T06:08:57;101242.47;;;16.39;41.87
71126;BME280;58785;55.566;38.058;2023-05-10T06:11:23;101246.25;;;16.46;42.14
71126;BME280;58785;55.566;38.058;2023-05-10T06:13:49;101242.13;;;16.60;41.93
71126;BME280;58785;55.566;38.058;2023-05-10T06:16:15;101241.88;;;16.71;42.01
71126;BME280;58785;55.566;38.058;2023-05-10T06:18:41;101237.06;;;16.83;42.04
71126;BME280;58785;55.566;38.058;2023-05-10T06:21:06;101237.94;;;16.91;41.98
71126;BME280;58785;55.566;38.058;2023-05-10T06:23:32;101243.75;;;17.05;42.08
71126;BME280;58785;55.566;38.058;2023-05-10T06:25:58;101245.97;;;17.17;41.97
71126;BME280;58785;55.566;38.058;2023-05-10T06:28:24;101233.00;;;17.21;41.84
71126;BME280;58785;55.566;38.058;2023-05-10T06:30:49;101240.13;;;17.30;41.66
71126;BME280;58785;55.566;38.058;2023-05-10T06:33:15;101236.41;;;17.31;41.51
71126;BME280;58785;55.566;38.058;2023-05-10T06:35:41;101243.03;;;17.37;41.31
71126;BME280;58785;55.566;38.058;2023-05-10T06:38:07;101240.66;;;17.42;41.38
71126;BME280;58785;55.566;38.058;2023-05-10T06:40:32;101242.91;;;17.55;41.30
71126;BME280;58785;55.566;38.058;2023-05-10T06:42:58;101237.91;;;17.76;40.92
71126;BME280;58785;55.566;38.058;2023-05-10T06:45:24;101236.53;;;17.72;40.01
71126;BME280;58785;55.566;38.058;2023-05-10T06:47:50;101233.84;;;17.72;39.93
71126;BME280;58785;55.566;38.058;2023-05-10T06:50:15;101234.66;;;17.64;39.34
71126;BME280;58785;55.566;38.058;2023-05-10T06:52:41;101230.13;;;17.65;39.40
71126;BME280;58785;55.566;38.058;2023-05-10T06:55:08;101232.34;;;17.77;39.22
71126;BME280;58785;55.566;38.058;2023-05-10T06:57:34;101221.56;;;17.86;39.07
71126;BME280;58785;55.566;38.058;2023-05-10T06:59:59;101222.41;;;18.02;38.92
71126;BME280;58785;55.566;38.058;2023-05-10T07:02:25;101211.13;;;18.15;38.42
71126;BME280;58785;55.566;38.058;2023-05-10T07:04:51;101221.69;;;18.33;38.00
71126;BME280;58785;55.566;38.058;2023-05-10T07:07:18;101226.59;;;18.46;37.63
71126;BME280;58785;55.566;38.058;2023-05-10T07:09:44;101215.28;;;18.50;37.41
71126;BME280;58785;55.566;38.058;2023-05-10T07:12:10;101217.28;;;18.56;37.04
71126;BME280;58785;55.566;38.058;2023-05-10T07:14:36;101213.03;;;18.78;36.91
71126;BME280;58785;55.566;38.058;2023-05-10T07:17:01;101213.13;;;18.93;36.23
71126;BME280;58785;55.566;38.058;2023-05-10T07:19:27;101204.31;;;19.07;35.10
71126;BME280;58785;55.566;38.058;2023-05-10T07:21:54;101209.63;;;19.23;34.57
71126;BME280;58785;55.566;38.058;2023-05-10T07:24:20;101208.56;;;19.33;34.45
71126;BME280;58785;55.566;38.058;2023-05-10T07:26:46;101201.69;;;19.22;34.38
71126;BME280;58785;55.566;38.058;2023-05-10T07:29:12;101198.34;;;19.12;33.77
71126;BME280;58785;55.566;38.058;2023-05-10T07:31:37;101197.88;;;19.08;33.74
71126;BME280;58785;55.566;38.058;2023-05-10T07:34:03;101202.63;;;19.06;33.43
71126;BME280;58785;55.566;38.058;2023-05-10T07:36:28;101202.50;;;18.91;32.67
71126;BME280;58785;55.566;38.058;2023-05-10T07:38:54;101196.97;;;18.85;33.02
71126;BME280;58785;55.566;38.058;2023-05-10T07:41:20;101208.66;;;18.69;32.32
71126;BME280;58785;55.566;38.058;2023-05-10T07:43:46;101196.34;;;18.50;32.18
71126;BME280;58785;55.566;38.058;2023-05-10T07:46:11;101196.19;;;18.44;31.84
71126;BME280;58785;55.566;38.058;2023-05-10T07:48:37;101186.75;;;18.39;31.82
71126;BME280;58785;55.566;38.058;2023-05-10T07:51:03;101195.03;;;18.46;31.55
71126;BME280;58785;55.566;38.058;2023-05-10T07:53:28;101195.88;;;18.47;31.45
71126;BME280;58785;55.566;38.058;2023-05-10T07:55:57;101186.38;;;18.59;31.71
71126;BME280;58785;55.566;38.058;2023-05-10T07:58:24;101196.84;;;18.70;31.70
71126;BME280;58785;55.566;38.058;2023-05-10T08:00:50;101179.13;;;18.51;31.71
71126;BME280;58785;55.566;38.058;2023-05-10T08:03:16;101184.06;;;18.31;31.80
71126;BME280;58785;55.566;38.058;2023-05-10T08:05:42;101176.69;;;17.93;31.05
71126;BME280;58785;55.566;38.058;2023-05-10T08:08:08;101178.91;;;17.89;31.27
71126;BME280;58785;55.566;38.058;2023-05-10T08:10:33;101170.97;;;17.79;31.59
71126;BME280;58785;55.566;38.058;2023-05-10T08:12:59;101179.38;;;18.01;32.46
71126;BME280;58785;55.566;38.058;2023-05-10T08:15:25;101171.88;;;18.52;32.13
71126;BME280;58785;55.566;38.058;2023-05-10T08:17:53;101176.44;;;19.07;31.83
71126;BME280;58785;55.566;38.058;2023-05-10T08:20:19;101173.09;;;19.28;31.42
71126;BME280;58785;55.566;38.058;2023-05-10T08:22:46;101160.94;;;19.55;31.22
71126;BME280;58785;55.566;38.058;2023-05-10T08:25:12;101162.91;;;19.84;30.86
71126;BME280;58785;55.566;38.058;2023-05-10T08:27:38;101162.34;;;20.11;30.86
71126;BME280;58785;55.566;38.058;2023-05-10T08:30:04;101156.19;;;20.17;30.99
71126;BME280;58785;55.566;38.058;2023-05-10T08:32:32;101148.19;;;20.53;31.38
71126;BME280;58785;55.566;38.058;2023-05-10T08:34:59;101144.63;;;20.82;30.94
71126;BME280;58785;55.566;38.058;2023-05-10T08:37:25;101146.84;;;20.93;30.68
71126;BME280;58785;55.566;38.058;2023-05-10T08:39:51;101145.84;;;20.94;29.89
71126;BME280;58785;55.566;38.058;2023-05-10T08:42:21;101147.06;;;20.62;29.90
71126;BME280;58785;55.566;38.058;2023-05-10T08:44:48;101144.50;;;20.54;30.21
71126;BME280;58785;55.566;38.058;2023-05-10T08:47:16;101153.88;;;20.29;30.58
71126;BME280;58785;55.566;38.058;2023-05-10T08:49:45;101151.41;;;20.04;30.29
71126;BME280;58785;55.566;38.058;2023-05-10T08:52:15;101140.78;;;19.80;30.73
71126;BME280;58785;55.566;38.058;2023-05-10T08:54:42;101146.63;;;19.69;31.19
71126;BME280;58785;55.566;38.058;2023-05-10T08:57:10;101142.84;;;19.55;31.43
71126;BME280;58785;55.566;38.058;2023-05-10T08:59:36;101142.88;;;19.47;31.58
71126;BME280;58785;55.566;38.058;2023-05-10T09:02:05;101147.09;;;19.49;31.67
71126;BME280;58785;55.566;38.058;2023-05-10T09:04:30;101144.38;;;19.49;31.62
71126;BME280;58785;55.566;38.058;2023-05-10T09:06:56;101132.69;;;19.34;31.68
71126;BME280;58785;55.566;38.058;2023-05-10T09:09:23;101138.59;;;19.30;31.84
71126;BME280;58785;55.566;38.058;2023-05-10T09:11:51;101144.66;;;19.32;31.49
71126;BME280;58785;55.566;38.058;2023-05-10T09:14:18;101127.00;;;19.21;30.92
71126;BME280;58785;55.566;38.058;2023-05-10T09:16:45;101135.34;;;19.11;30.89
71126;BME280;58785;55.566;38.058;2023-05-10T09:19:11;101126.00;;;19.14;31.23
71126;BME280;58785;55.566;38.058;2023-05-10T09:21:37;101124.66;;;19.18;31.69
71126;BME280;58785;55.566;38.058;2023-05-10T09:24:05;101113.66;;;19.19;31.87
71126;BME280;58785;55.566;38.058;2023-05-10T09:26:31;101114.44;;;19.28;32.19
71126;BME280;58785;55.566;38.058;2023-05-10T09:28:58;101107.66;;;19.32;32.38
71126;BME280;58785;55.566;38.058;2023-05-10T09:31:24;101113.19;;;19.39;32.13
71126;BME280;58785;55.566;38.058;2023-05-10T09:34:08;101111.88;;;19.35;32.06
71126;BME280;58785;55.566;38.058;2023-05-10T09:36:33;101109.50;;;19.32;32.22
71126;BME280;58785;55.566;38.058;2023-05-10T09:38:59;101109.63;;;19.38;31.33
71126;BME280;58785;55.566;38.058;2023-05-10T09:41:25;101100.13;;;19.42;31.27
71126;BME280;58785;55.566;38.058;2023-05-10T09:43:55;101098.25;;;19.43;30.94
71126;BME280;58785;55.566;38.058;2023-05-10T09:46:22;101099.03;;;19.51;30.25
71126;BME280;58785;55.566;38.058;2023-05-10T09:48:50;101089.91;;;19.52;30.34
71126;BME280;58785;55.566;38.058;2023-05-10T09:51:22;101086.72;;;19.49;30.12
71126;BME280;58785;55.566;38.058;2023-05-10T09:54:08;101087.78;;;19.25;30.04
71126;BME280;58785;55.566;38.058;2023-05-10T09:56:35;101076.69;;;19.12;30.25
71126;BME280;58785;55.566;38.058;2023-05-10T09:59:05;101076.41;;;19.07;29.58
71126;BME280;58785;55.566;38.058;2023-05-10T10:01:31;101083.25;;;18.94;29.87
71126;BME280;58785;55.566;38.058;2023-05-10T10:03:57;101077.69;;;18.88;29.92
71126;BME280;58785;55.566;38.058;2023-05-10T10:06:24;101074.53;;;18.84;29.68
71126;BME280;58785;55.566;38.058;2023-05-10T10:08:50;101072.91;;;18.67;29.96
71126;BME280;58785;55.566;38.058;2023-05-10T10:11:16;101079.16;;;18.59;29.63
71126;BME280;58785;55.566;38.058;2023-05-10T10:13:43;101069.75;;;18.55;29.87
71126;BME280;58785;55.566;38.058;2023-05-10T10:16:09;101055.69;;;18.60;30.50
71126;BME280;58785;55.566;38.058;2023-05-10T10:18:36;101061.38;;;18.73;30.51
71126;BME280;58785;55.566;38.058;2023-05-10T10:21:07;101057.44;;;18.84;30.46
71126;BME280;58785;55.566;38.058;2023-05-10T10:23:34;101062.13;;;18.90;30.44
71126;BME280;58785;55.566;38.058;2023-05-10T10:26:02;101051.22;;;19.06;30.95
71126;BME280;58785;55.566;38.058;2023-05-10T10:28:49;101056.63;;;19.29;30.54
71126;BME280;58785;55.566;38.058;2023-05-10T10:31:27;101051.25;;;19.44;30.70
71126;BME280;58785;55.566;38.058;2023-05-10T10:34:39;101049.28;;;19.61;29.98
71126;BME280;58785;55.566;38.058;2023-05-10T10:36:46;101038.88;;;19.49;29.82
71126;BME280;58785;55.566;38.058;2023-05-10T10:39:15;101046.34;;;19.47;30.40
71126;BME280;58785;55.566;38.058;2023-05-10T10:41:55;101043.63;;;19.47;30.88
71126;BME280;58785;55.566;38.058;2023-05-10T10:44:25;101043.75;;;19.54;31.00
71126;BME280;58785;55.566;38.058;2023-05-10T10:49:49;101041.47;;;19.66;30.78
71126;BME280;58785;55.566;38.058;2023-05-10T10:52:35;101036.06;;;19.80;31.15
71126;BME280;58785;55.566;38.058;2023-05-10T11:00:18;101037.91;;;19.42;29.51
71126;BME280;58785;55.566;38.058;2023-05-10T11:02:47;101029.97;;;19.26;30.42
71126;BME280;58785;55.566;38.058;2023-05-10T11:07:56;101028.63;;;19.22;30.09
71126;BME280;58785;55.566;38.058;2023-05-10T11:10:24;101020.16;;;19.25;30.02
71126;BME280;58785;55.566;38.058;2023-05-10T11:12:59;101018.88;;;19.36;30.02
71126;BME280;58785;55.566;38.058;2023-05-10T11:15:34;101017.94;;;19.43;30.24
71126;BME280;58785;55.566;38.058;2023-05-10T11:18:16;101003.84;;;19.33;30.06
71126;BME280;58785;55.566;38.058;2023-05-10T11:20:42;101007.66;;;19.24;30.36
71126;BME280;58785;55.566;38.058;2023-05-10T11:23:12;101014.09;;;19.00;29.64
71126;BME280;58785;55.566;38.058;2023-05-10T11:25:45;101010.03;;;18.73;29.93
71126;BME280;58785;55.566;38.058;2023-05-10T11:28:12;101001.47;;;18.61;29.78
71126;BME280;58785;55.566;38.058;2023-05-10T11:30:39;101007.88;;;18.69;30.41
71126;BME280;58785;55.566;38.058;2023-05-10T11:33:09;101004.00;;;18.63;30.09
71126;BME280;58785;55.566;38.058;2023-05-10T11:35:39;100999.97;;;18.67;29.87
71126;BME280;58785;55.566;38.058;2023-05-10T11:38:12;101000.56;;;18.77;29.67
71126;BME280;58785;55.566;38.058;2023-05-10T11:40:38;100993.81;;;18.73;29.79
71126;BME280;58785;55.566;38.058;2023-05-10T11:43:05;100987.44;;;18.74;29.53
71126;BME280;58785;55.566;38.058;2023-05-10T11:45:34;100990.97;;;18.75;29.60
71126;BME280;58785;55.566;38.058;2023-05-10T11:48:01;100992.94;;;18.81;29.64
71126;BME280;58785;55.566;38.058;2023-05-10T11:50:27;100984.47;;;18.84;29.72
71126;BME280;58785;55.566;38.058;2023-05-10T11:52:56;100980.78;;;18.85;30.37
71126;BME280;58785;55.566;38.058;2023-05-10T11:55:23;100983.63;;;18.83;30.33
71126;BME280;58785;55.566;38.058;2023-05-10T11:57:53;100978.72;;;18.87;30.43
71126;BME280;58785;55.566;38.058;2023-05-10T12:00:20;100971.75;;;18.92;30.46
71126;BME280;58785;55.566;38.058;2023-05-10T12:02:47;100975.88;;;19.03;30.46
71126;BME280;58785;55.566;38.058;2023-05-10T12:05:13;100967.50;;;19.13;30.55
71126;BME280;58785;55.566;38.058;2023-05-10T12:07:39;100962.94;;;19.13;30.19
71126;BME280;58785;55.566;38.058;2023-05-10T12:10:08;100969.50;;;19.19;30.64
71126;BME280;58785;55.566;38.058;2023-05-10T12:12:39;100962.34;;;19.26;31.11
71126;BME280;58785;55.566;38.058;2023-05-10T12:15:12;100964.22;;;19.26;30.85
71126;BME280;58785;55.566;38.058;2023-05-10T12:17:43;100959.97;;;19.23;30.75
71126;BME280;58785;55.566;38.058;2023-05-10T12:20:20;100957.66;;;19.20;30.43
71126;BME280;58785;55.566;38.058;2023-05-10T12:22:50;100950.94;;;19.16;30.61
71126;BME280;58785;55.566;38.058;2023-05-10T12:25:18;100956.69;;;19.13;31.10
71126;BME280;58785;55.566;38.058;2023-05-10T12:27:58;100946.25;;;19.10;30.89
71126;BME280;58785;55.566;38.058;2023-05-10T12:30:27;100944.13;;;19.05;30.79
71126;BME280;58785;55.566;38.058;2023-05-10T12:32:58;100943.28;;;19.05;30.75
71126;BME280;58785;55.566;38.058;2023-05-10T12:35:24;100941.72;;;18.87;30.66
71126;BME280;58785;55.566;38.058;2023-05-10T12:37:51;100948.09;;;18.63;30.30
71126;BME280;58785;55.566;38.058;2023-05-10T12:40:17;100946.19;;;18.49;31.06
71126;BME280;58785;55.566;38.058;2023-05-10T12:42:43;100943.19;;;18.44;30.35
71126;BME280;58785;55.566;38.058;2023-05-10T12:45:10;100946.59;;;18.38;30.49
71126;BME280;58785;55.566;38.058;2023-05-10T12:47:37;100940.81;;;18.41;30.12
71126;BME280;58785;55.566;38.058;2023-05-10T12:50:03;100948.50;;;18.52;30.23
71126;BME280;58785;55.566;38.058;2023-05-10T12:52:32;100937.66;;;18.60;30.70
71126;BME280;58785;55.566;38.058;2023-05-10T12:54:58;100948.97;;;18.64;30.72
71126;BME280;58785;55.566;38.058;2023-05-10T12:57:25;100939.88;;;18.57;30.56
71126;BME280;58785;55.566;38.058;2023-05-10T12:59:51;100940.41;;;18.52;30.69
71126;BME280;58785;55.566;38.058;2023-05-10T13:02:16;100939.75;;;18.50;30.67
71126;BME280;58785;55.566;38.058;2023-05-10T13:04:46;100938.63;;;18.45;30.48
71126;BME280;58785;55.566;38.058;2023-05-10T13:07:13;100935.94;;;18.45;30.50
71126;BME280;58785;55.566;38.058;2023-05-10T13:09:39;100934.59;;;18.41;30.84